Valladolid

latitud = 41° 39' 8''N | longitud = 004° 43' 24''W
690 metros sobre el nivel del mar | datos mensuales

Fecha, hora, temperatura, viento dirección y velocidad, humedad y presión.

  • 23-04-2018 10:00:00 | 12.10°C | Norte |5.00 km/h | 90.00% | 933.90 hPa
  • 23-04-2018 09:00:00 | 9.90°C | Norte |4.00 km/h | 96.00% | 933.40 hPa
  • 23-04-2018 08:00:00 | 9.00°C | Norte |3.00 km/h | 98.00% | 933.10 hPa
  • 23-04-2018 07:00:00 | 9.10°C | Noroeste |4.00 km/h | 98.00% | 932.50 hPa
  • 23-04-2018 06:00:00 | 9.60°C | Noroeste |4.00 km/h | 97.00% | 932.30 hPa
  • 23-04-2018 05:00:00 | 10.10°C | Este |4.00 km/h | 96.00% | 932.80 hPa
  • 23-04-2018 04:00:00 | 10.20°C | Noroeste |4.00 km/h | 97.00% | 932.50 hPa
  • 23-04-2018 03:00:00 | 10.80°C | Noroeste |4.00 km/h | 95.00% | 932.40 hPa
  • 23-04-2018 02:00:00 | 10.80°C | Norte |3.00 km/h | 96.00% | 932.80 hPa
  • 23-04-2018 01:00:00 | 11.20°C | Noroeste |4.00 km/h | 96.00% | 932.60 hPa
  • 23-04-2018 00:00:00 | 11.90°C | Noroeste |3.00 km/h | 96.00% | 932.80 hPa
  • 22-04-2018 23:00:00 | 12.50°C | Noroeste |4.00 km/h | 94.00% | 932.60 hPa
  • 22-04-2018 22:00:00 | 13.30°C | Norte |3.00 km/h | 91.00% | 931.30 hPa
  • 22-04-2018 21:00:00 | 14.30°C | Norte |2.00 km/h | 87.00% | 931.30 hPa
  • 22-04-2018 20:00:00 | 15.40°C | Norte |4.00 km/h | 86.00% | 930.70 hPa
  • 22-04-2018 19:00:00 | 15.00°C | Nordeste |4.00 km/h | 87.00% | 930.90 hPa
  • 22-04-2018 18:00:00 | 13.30°C | Noroeste |9.00 km/h | 93.00% | 931.10 hPa
  • 22-04-2018 17:00:00 | 13.30°C | Oeste |31.00 km/h | 86.00% | 931.10 hPa
  • 22-04-2018 16:00:00 | 20.80°C | Norte |6.00 km/h | 54.00% | 930.90 hPa
  • 22-04-2018 15:00:00 | 20.40°C | Norte |5.00 km/h | 57.00% | 930.70 hPa
  • 22-04-2018 14:00:00 | 17.90°C | Norte |6.00 km/h | 72.00% | 931.40 hPa
  • 22-04-2018 13:00:00 | 16.90°C | Noroeste |9.00 km/h | 74.00% | 932.00 hPa
  • 22-04-2018 12:00:00 | 13.60°C | Nordeste |4.00 km/h | 83.00% | 932.10 hPa
  • 22-04-2018 11:00:00 | 11.80°C | Este |4.00 km/h | 91.00% | 932.80 hPa